sensor_id;sensor_type;location;lat;lon;timestamp;P1;durP1;ratioP1;P2;durP2;ratioP2
61709;SDS011;73500;51.494;5.386;2023-11-21T00:00:48;4.45;;;2.30;;
61709;SDS011;73500;51.494;5.386;2023-11-21T00:03:13;5.57;;;2.72;;
61709;SDS011;73500;51.494;5.386;2023-11-21T00:05:40;6.00;;;2.45;;
61709;SDS011;73500;51.494;5.386;2023-11-21T00:08:08;5.93;;;2.67;;
61709;SDS011;73500;51.494;5.386;2023-11-21T00:10:34;5.50;;;2.25;;
61709;SDS011;73500;51.494;5.386;2023-11-21T00:13:00;5.80;;;2.50;;
61709;SDS011;73500;51.494;5.386;2023-11-21T00:15:27;7.43;;;2.45;;
61709;SDS011;73500;51.494;5.386;2023-11-21T00:17:52;4.45;;;2.20;;
61709;SDS011;73500;51.494;5.386;2023-11-21T00:20:18;5.93;;;2.42;;
61709;SDS011;73500;51.494;5.386;2023-11-21T00:22:43;4.75;;;2.13;;
61709;SDS011;73500;51.494;5.386;2023-11-21T00:25:08;5.60;;;2.60;;
61709;SDS011;73500;51.494;5.386;2023-11-21T00:27:37;5.18;;;2.22;;
61709;SDS011;73500;51.494;5.386;2023-11-21T00:30:03;5.40;;;2.45;;
61709;SDS011;73500;51.494;5.386;2023-11-21T00:32:32;4.93;;;2.35;;
61709;SDS011;73500;51.494;5.386;2023-11-21T00:34:57;4.22;;;2.10;;
61709;SDS011;73500;51.494;5.386;2023-11-21T00:37:22;5.93;;;2.60;;
61709;SDS011;73500;51.494;5.386;2023-11-21T00:39:49;4.68;;;2.30;;
61709;SDS011;73500;51.494;5.386;2023-11-21T00:42:14;5.68;;;2.45;;
61709;SDS011;73500;51.494;5.386;2023-11-21T00:44:39;4.38;;;2.35;;
61709;SDS011;73500;51.494;5.386;2023-11-21T00:47:04;4.07;;;2.30;;
61709;SDS011;73500;51.494;5.386;2023-11-21T00:49:30;3.75;;;2.13;;
61709;SDS011;73500;51.494;5.386;2023-11-21T00:51:55;4.50;;;2.10;;
61709;SDS011;73500;51.494;5.386;2023-11-21T00:54:20;7.30;;;2.67;;
61709;SDS011;73500;51.494;5.386;2023-11-21T00:56:46;5.07;;;2.53;;
61709;SDS011;73500;51.494;5.386;2023-11-21T00:59:13;3.88;;;1.90;;
61709;SDS011;73500;51.494;5.386;2023-11-21T01:01:38;4.47;;;2.15;;
61709;SDS011;73500;51.494;5.386;2023-11-21T01:04:04;6.72;;;2.30;;
61709;SDS011;73500;51.494;5.386;2023-11-21T01:06:30;4.20;;;2.25;;
61709;SDS011;73500;51.494;5.386;2023-11-21T01:08:56;4.40;;;2.30;;
61709;SDS011;73500;51.494;5.386;2023-11-21T01:11:21;4.68;;;2.05;;
61709;SDS011;73500;51.494;5.386;2023-11-21T01:13:46;4.03;;;2.20;;
61709;SDS011;73500;51.494;5.386;2023-11-21T01:16:12;4.18;;;1.80;;
61709;SDS011;73500;51.494;5.386;2023-11-21T01:18:37;4.00;;;2.08;;
61709;SDS011;73500;51.494;5.386;2023-11-21T01:21:02;5.07;;;2.35;;
61709;SDS011;73500;51.494;5.386;2023-11-21T01:23:28;4.00;;;2.03;;
61709;SDS011;73500;51.494;5.386;2023-11-21T01:25:55;4.03;;;2.28;;
61709;SDS011;73500;51.494;5.386;2023-11-21T01:28:21;6.00;;;2.22;;
61709;SDS011;73500;51.494;5.386;2023-11-21T01:30:46;4.97;;;2.28;;
61709;SDS011;73500;51.494;5.386;2023-11-21T01:33:12;3.60;;;2.20;;
61709;SDS011;73500;51.494;5.386;2023-11-21T01:35:43;5.35;;;2.20;;
61709;SDS011;73500;51.494;5.386;2023-11-21T01:38:08;4.43;;;2.25;;
61709;SDS011;73500;51.494;5.386;2023-11-21T01:40:34;5.57;;;2.20;;
61709;SDS011;73500;51.494;5.386;2023-11-21T01:43:00;3.70;;;2.10;;
61709;SDS011;73500;51.494;5.386;2023-11-21T01:45:28;4.25;;;2.20;;
61709;SDS011;73500;51.494;5.386;2023-11-21T01:47:55;4.13;;;2.17;;
61709;SDS011;73500;51.494;5.386;2023-11-21T01:50:21;5.15;;;2.38;;
61709;SDS011;73500;51.494;5.386;2023-11-21T01:52:47;5.28;;;2.45;;
61709;SDS011;73500;51.494;5.386;2023-11-21T01:55:14;4.07;;;2.08;;
61709;SDS011;73500;51.494;5.386;2023-11-21T01:57:43;5.30;;;2.40;;
61709;SDS011;73500;51.494;5.386;2023-11-21T02:00:09;4.00;;;2.20;;
61709;SDS011;73500;51.494;5.386;2023-11-21T02:02:43;4.28;;;2.25;;
61709;SDS011;73500;51.494;5.386;2023-11-21T02:05:10;4.13;;;1.98;;
61709;SDS011;73500;51.494;5.386;2023-11-21T02:07:37;4.03;;;2.20;;
61709;SDS011;73500;51.494;5.386;2023-11-21T02:10:03;3.92;;;1.90;;
61709;SDS011;73500;51.494;5.386;2023-11-21T02:12:29;6.20;;;1.92;;
61709;SDS011;73500;51.494;5.386;2023-11-21T02:14:55;4.88;;;2.28;;
61709;SDS011;73500;51.494;5.386;2023-11-21T02:17:20;6.30;;;2.50;;
61709;SDS011;73500;51.494;5.386;2023-11-21T02:19:46;3.92;;;1.95;;
61709;SDS011;73500;51.494;5.386;2023-11-21T02:22:12;5.25;;;2.05;;
61709;SDS011;73500;51.494;5.386;2023-11-21T02:24:41;3.78;;;2.05;;
61709;SDS011;73500;51.494;5.386;2023-11-21T02:27:07;4.20;;;2.28;;
61709;SDS011;73500;51.494;5.386;2023-11-21T02:29:32;3.42;;;1.98;;
61709;SDS011;73500;51.494;5.386;2023-11-21T02:31:58;3.92;;;2.30;;
61709;SDS011;73500;51.494;5.386;2023-11-21T02:34:24;3.85;;;2.03;;
61709;SDS011;73500;51.494;5.386;2023-11-21T02:36:50;3.30;;;1.80;;
61709;SDS011;73500;51.494;5.386;2023-11-21T02:39:16;3.55;;;1.98;;
61709;SDS011;73500;51.494;5.386;2023-11-21T02:41:42;3.63;;;2.08;;
61709;SDS011;73500;51.494;5.386;2023-11-21T02:44:08;4.03;;;1.90;;
61709;SDS011;73500;51.494;5.386;2023-11-21T02:46:33;4.05;;;1.90;;
61709;SDS011;73500;51.494;5.386;2023-11-21T02:49:00;3.67;;;1.90;;
61709;SDS011;73500;51.494;5.386;2023-11-21T02:51:29;3.67;;;2.00;;
61709;SDS011;73500;51.494;5.386;2023-11-21T02:53:55;3.72;;;1.92;;
61709;SDS011;73500;51.494;5.386;2023-11-21T02:56:24;3.45;;;1.90;;
61709;SDS011;73500;51.494;5.386;2023-11-21T02:58:50;3.40;;;1.90;;
61709;SDS011;73500;51.494;5.386;2023-11-21T03:01:16;3.20;;;1.80;;
61709;SDS011;73500;51.494;5.386;2023-11-21T03:03:42;3.58;;;2.00;;
61709;SDS011;73500;51.494;5.386;2023-11-21T03:06:07;4.20;;;1.90;;
61709;SDS011;73500;51.494;5.386;2023-11-21T03:08:33;3.45;;;1.92;;
61709;SDS011;73500;51.494;5.386;2023-11-21T03:10:58;4.17;;;2.00;;
61709;SDS011;73500;51.494;5.386;2023-11-21T03:13:23;3.53;;;1.93;;
61709;SDS011;73500;51.494;5.386;2023-11-21T03:15:49;3.60;;;2.00;;
61709;SDS011;73500;51.494;5.386;2023-11-21T03:18:14;3.33;;;1.83;;
61709;SDS011;73500;51.494;5.386;2023-11-21T03:20:40;4.25;;;2.00;;
61709;SDS011;73500;51.494;5.386;2023-11-21T03:23:05;3.10;;;1.90;;
61709;SDS011;73500;51.494;5.386;2023-11-21T03:25:30;3.47;;;1.98;;
61709;SDS011;73500;51.494;5.386;2023-11-21T03:27:56;3.53;;;2.00;;
61709;SDS011;73500;51.494;5.386;2023-11-21T03:30:21;4.05;;;2.10;;
61709;SDS011;73500;51.494;5.386;2023-11-21T03:32:46;3.55;;;1.95;;
61709;SDS011;73500;51.494;5.386;2023-11-21T03:35:12;3.63;;;1.70;;
61709;SDS011;73500;51.494;5.386;2023-11-21T03:37:37;3.17;;;1.77;;
61709;SDS011;73500;51.494;5.386;2023-11-21T03:40:06;3.95;;;2.00;;
61709;SDS011;73500;51.494;5.386;2023-11-21T03:42:33;2.92;;;1.88;;
61709;SDS011;73500;51.494;5.386;2023-11-21T03:44:58;3.33;;;2.00;;
61709;SDS011;73500;51.494;5.386;2023-11-21T03:47:24;2.97;;;1.80;;
61709;SDS011;73500;51.494;5.386;2023-11-21T03:49:51;3.38;;;1.83;;
61709;SDS011;73500;51.494;5.386;2023-11-21T03:52:16;2.90;;;1.83;;
61709;SDS011;73500;51.494;5.386;2023-11-21T03:54:41;3.58;;;2.00;;
61709;SDS011;73500;51.494;5.386;2023-11-21T03:57:07;3.25;;;1.90;;
61709;SDS011;73500;51.494;5.386;2023-11-21T03:59:34;3.53;;;2.00;;
61709;SDS011;73500;51.494;5.386;2023-11-21T04:02:00;5.50;;;2.50;;
61709;SDS011;73500;51.494;5.386;2023-11-21T04:04:25;3.30;;;1.95;;
61709;SDS011;73500;51.494;5.386;2023-11-21T04:06:50;3.97;;;2.10;;
61709;SDS011;73500;51.494;5.386;2023-11-21T04:09:17;3.95;;;2.10;;
61709;SDS011;73500;51.494;5.386;2023-11-21T04:11:42;3.75;;;2.10;;
61709;SDS011;73500;51.494;5.386;2023-11-21T04:14:08;3.47;;;2.10;;
61709;SDS011;73500;51.494;5.386;2023-11-21T04:16:34;3.67;;;2.20;;
61709;SDS011;73500;51.494;5.386;2023-11-21T04:18:59;4.22;;;2.10;;
61709;SDS011;73500;51.494;5.386;2023-11-21T04:21:25;3.90;;;2.42;;
61709;SDS011;73500;51.494;5.386;2023-11-21T04:23:50;3.83;;;2.25;;
61709;SDS011;73500;51.494;5.386;2023-11-21T04:26:15;5.00;;;2.35;;
61709;SDS011;73500;51.494;5.386;2023-11-21T04:28:41;3.97;;;2.33;;
61709;SDS011;73500;51.494;5.386;2023-11-21T04:31:06;3.97;;;2.25;;
61709;SDS011;73500;51.494;5.386;2023-11-21T04:33:32;3.85;;;2.25;;
61709;SDS011;73500;51.494;5.386;2023-11-21T04:35:57;4.15;;;2.53;;
61709;SDS011;73500;51.494;5.386;2023-11-21T04:38:22;3.50;;;2.00;;
61709;SDS011;73500;51.494;5.386;2023-11-21T04:40:48;4.57;;;2.50;;
61709;SDS011;73500;51.494;5.386;2023-11-21T04:43:13;3.92;;;2.38;;
61709;SDS011;73500;51.494;5.386;2023-11-21T04:45:38;3.70;;;2.13;;
61709;SDS011;73500;51.494;5.386;2023-11-21T04:48:05;5.13;;;2.25;;
61709;SDS011;73500;51.494;5.386;2023-11-21T04:50:31;4.10;;;2.40;;
61709;SDS011;73500;51.494;5.386;2023-11-21T04:52:57;3.95;;;2.33;;
61709;SDS011;73500;51.494;5.386;2023-11-21T04:55:22;5.00;;;2.40;;
61709;SDS011;73500;51.494;5.386;2023-11-21T04:57:47;4.70;;;2.67;;
61709;SDS011;73500;51.494;5.386;2023-11-21T05:00:13;4.05;;;2.13;;
61709;SDS011;73500;51.494;5.386;2023-11-21T05:02:39;3.90;;;2.35;;
61709;SDS011;73500;51.494;5.386;2023-11-21T05:05:06;4.20;;;2.40;;
61709;SDS011;73500;51.494;5.386;2023-11-21T05:07:32;4.40;;;2.30;;
61709;SDS011;73500;51.494;5.386;2023-11-21T05:10:00;5.00;;;2.47;;
61709;SDS011;73500;51.494;5.386;2023-11-21T05:12:30;4.32;;;2.47;;
61709;SDS011;73500;51.494;5.386;2023-11-21T05:15:06;4.22;;;2.63;;
61709;SDS011;73500;51.494;5.386;2023-11-21T05:17:35;3.95;;;2.47;;
61709;SDS011;73500;51.494;5.386;2023-11-21T05:20:02;4.40;;;2.50;;
61709;SDS011;73500;51.494;5.386;2023-11-21T05:22:29;4.25;;;2.58;;
61709;SDS011;73500;51.494;5.386;2023-11-21T05:24:55;6.10;;;2.72;;
61709;SDS011;73500;51.494;5.386;2023-11-21T05:27:20;4.60;;;2.72;;
61709;SDS011;73500;51.494;5.386;2023-11-21T05:29:45;5.22;;;2.75;;
61709;SDS011;73500;51.494;5.386;2023-11-21T05:32:11;4.60;;;2.80;;
61709;SDS011;73500;51.494;5.386;2023-11-21T05:34:36;4.00;;;2.25;;
61709;SDS011;73500;51.494;5.386;2023-11-21T05:37:01;6.15;;;3.10;;
61709;SDS011;73500;51.494;5.386;2023-11-21T05:39:30;6.10;;;2.95;;
61709;SDS011;73500;51.494;5.386;2023-11-21T05:41:56;4.72;;;2.83;;
61709;SDS011;73500;51.494;5.386;2023-11-21T05:44:22;5.80;;;3.20;;
61709;SDS011;73500;51.494;5.386;2023-11-21T05:46:50;5.13;;;2.80;;
61709;SDS011;73500;51.494;5.386;2023-11-21T05:49:15;4.68;;;2.72;;
61709;SDS011;73500;51.494;5.386;2023-11-21T05:51:40;5.45;;;2.65;;
61709;SDS011;73500;51.494;5.386;2023-11-21T05:54:05;4.33;;;2.70;;
61709;SDS011;73500;51.494;5.386;2023-11-21T05:56:31;5.88;;;3.42;;
61709;SDS011;73500;51.494;5.386;2023-11-21T05:58:56;5.10;;;2.83;;
61709;SDS011;73500;51.494;5.386;2023-11-21T06:01:21;4.60;;;2.80;;
61709;SDS011;73500;51.494;5.386;2023-11-21T06:03:47;5.68;;;3.20;;
61709;SDS011;73500;51.494;5.386;2023-11-21T06:06:13;4.38;;;2.80;;
61709;SDS011;73500;51.494;5.386;2023-11-21T06:08:38;5.93;;;2.78;;
61709;SDS011;73500;51.494;5.386;2023-11-21T06:11:04;5.22;;;2.90;;
61709;SDS011;73500;51.494;5.386;2023-11-21T06:13:29;5.57;;;3.00;;
61709;SDS011;73500;51.494;5.386;2023-11-21T06:15:55;5.72;;;3.40;;
61709;SDS011;73500;51.494;5.386;2023-11-21T06:18:20;5.32;;;2.95;;
61709;SDS011;73500;51.494;5.386;2023-11-21T06:20:46;4.73;;;2.70;;
61709;SDS011;73500;51.494;5.386;2023-11-21T06:23:11;4.70;;;2.67;;
61709;SDS011;73500;51.494;5.386;2023-11-21T06:25:37;5.25;;;2.80;;
61709;SDS011;73500;51.494;5.386;2023-11-21T06:28:02;5.63;;;2.83;;
61709;SDS011;73500;51.494;5.386;2023-11-21T06:30:28;6.80;;;2.85;;
61709;SDS011;73500;51.494;5.386;2023-11-21T06:32:54;4.65;;;2.42;;
61709;SDS011;73500;51.494;5.386;2023-11-21T06:35:20;4.95;;;2.70;;
61709;SDS011;73500;51.494;5.386;2023-11-21T06:37:45;4.72;;;2.50;;
61709;SDS011;73500;51.494;5.386;2023-11-21T06:40:12;5.18;;;2.67;;
61709;SDS011;73500;51.494;5.386;2023-11-21T06:42:40;5.50;;;2.88;;
61709;SDS011;73500;51.494;5.386;2023-11-21T06:45:06;5.18;;;2.80;;
61709;SDS011;73500;51.494;5.386;2023-11-21T06:47:32;5.32;;;2.70;;
61709;SDS011;73500;51.494;5.386;2023-11-21T06:49:57;5.43;;;2.60;;
61709;SDS011;73500;51.494;5.386;2023-11-21T06:52:23;5.97;;;2.60;;
61709;SDS011;73500;51.494;5.386;2023-11-21T06:54:48;5.07;;;2.67;;
61709;SDS011;73500;51.494;5.386;2023-11-21T06:57:16;4.95;;;2.78;;
61709;SDS011;73500;51.494;5.386;2023-11-21T06:59:42;4.80;;;2.67;;
61709;SDS011;73500;51.494;5.386;2023-11-21T07:02:08;5.28;;;2.75;;
61709;SDS011;73500;51.494;5.386;2023-11-21T07:04:34;5.18;;;2.70;;
61709;SDS011;73500;51.494;5.386;2023-11-21T07:07:01;5.32;;;2.78;;
61709;SDS011;73500;51.494;5.386;2023-11-21T07:09:27;5.60;;;2.80;;
61709;SDS011;73500;51.494;5.386;2023-11-21T07:11:53;6.03;;;3.28;;
61709;SDS011;73500;51.494;5.386;2023-11-21T07:14:18;5.53;;;3.05;;
61709;SDS011;73500;51.494;5.386;2023-11-21T07:16:44;5.47;;;2.80;;
61709;SDS011;73500;51.494;5.386;2023-11-21T07:19:10;7.10;;;2.80;;
61709;SDS011;73500;51.494;5.386;2023-11-21T07:21:37;5.82;;;2.85;;
61709;SDS011;73500;51.494;5.386;2023-11-21T07:24:03;5.97;;;3.17;;
61709;SDS011;73500;51.494;5.386;2023-11-21T07:26:29;6.18;;;3.10;;
61709;SDS011;73500;51.494;5.386;2023-11-21T07:28:55;6.03;;;3.00;;
61709;SDS011;73500;51.494;5.386;2023-11-21T07:31:21;7.10;;;2.83;;
61709;SDS011;73500;51.494;5.386;2023-11-21T07:33:47;5.72;;;2.95;;
61709;SDS011;73500;51.494;5.386;2023-11-21T07:36:13;6.22;;;3.50;;
61709;SDS011;73500;51.494;5.386;2023-11-21T07:38:38;7.05;;;3.33;;
61709;SDS011;73500;51.494;5.386;2023-11-21T07:41:04;6.65;;;2.80;;
61709;SDS011;73500;51.494;5.386;2023-11-21T07:43:29;7.25;;;3.05;;
61709;SDS011;73500;51.494;5.386;2023-11-21T07:46:00;6.25;;;3.42;;
61709;SDS011;73500;51.494;5.386;2023-11-21T07:48:27;5.57;;;3.22;;
61709;SDS011;73500;51.494;5.386;2023-11-21T07:50:53;8.38;;;3.10;;
61709;SDS011;73500;51.494;5.386;2023-11-21T07:53:20;5.57;;;2.90;;
61709;SDS011;73500;51.494;5.386;2023-11-21T07:55:47;7.75;;;3.30;;
61709;SDS011;73500;51.494;5.386;2023-11-21T07:58:12;7.40;;;3.38;;
61709;SDS011;73500;51.494;5.386;2023-11-21T08:00:37;6.15;;;3.53;;
61709;SDS011;73500;51.494;5.386;2023-11-21T08:03:04;7.28;;;3.80;;
61709;SDS011;73500;51.494;5.386;2023-11-21T08:05:30;7.57;;;3.80;;
61709;SDS011;73500;51.494;5.386;2023-11-21T08:07:56;6.10;;;2.92;;
61709;SDS011;73500;51.494;5.386;2023-11-21T08:10:21;6.72;;;3.55;;
61709;SDS011;73500;51.494;5.386;2023-11-21T08:12:46;8.02;;;4.00;;
61709;SDS011;73500;51.494;5.386;2023-11-21T08:15:13;6.28;;;3.70;;
61709;SDS011;73500;51.494;5.386;2023-11-21T08:17:38;8.32;;;3.67;;
61709;SDS011;73500;51.494;5.386;2023-11-21T08:20:04;7.47;;;4.00;;
61709;SDS011;73500;51.494;5.386;2023-11-21T08:22:31;7.30;;;3.70;;
61709;SDS011;73500;51.494;5.386;2023-11-21T08:24:57;6.50;;;3.45;;
61709;SDS011;73500;51.494;5.386;2023-11-21T08:27:22;7.47;;;3.58;;
61709;SDS011;73500;51.494;5.386;2023-11-21T08:29:47;6.43;;;3.22;;
61709;SDS011;73500;51.494;5.386;2023-11-21T08:32:13;7.05;;;3.25;;
61709;SDS011;73500;51.494;5.386;2023-11-21T08:34:38;7.07;;;3.50;;
61709;SDS011;73500;51.494;5.386;2023-11-21T08:37:05;6.03;;;3.03;;
61709;SDS011;73500;51.494;5.386;2023-11-21T08:39:30;7.93;;;3.15;;
61709;SDS011;73500;51.494;5.386;2023-11-21T08:41:56;6.03;;;3.33;;
61709;SDS011;73500;51.494;5.386;2023-11-21T08:44:22;7.88;;;3.50;;
61709;SDS011;73500;51.494;5.386;2023-11-21T08:46:48;6.68;;;3.63;;
61709;SDS011;73500;51.494;5.386;2023-11-21T08:49:14;7.63;;;3.33;;
61709;SDS011;73500;51.494;5.386;2023-11-21T08:51:40;8.07;;;3.55;;
61709;SDS011;73500;51.494;5.386;2023-11-21T08:54:06;6.32;;;3.30;;
61709;SDS011;73500;51.494;5.386;2023-11-21T08:56:36;8.30;;;3.80;;
61709;SDS011;73500;51.494;5.386;2023-11-21T08:59:01;8.43;;;3.65;;
61709;SDS011;73500;51.494;5.386;2023-11-21T09:01:28;7.57;;;3.47;;
61709;SDS011;73500;51.494;5.386;2023-11-21T09:03:56;6.50;;;3.50;;
61709;SDS011;73500;51.494;5.386;2023-11-21T09:09:10;7.95;;;3.58;;
61709;SDS011;73500;51.494;5.386;2023-11-21T09:11:36;6.45;;;3.03;;
61709;SDS011;73500;51.494;5.386;2023-11-21T09:14:02;5.32;;;3.20;;
61709;SDS011;73500;51.494;5.386;2023-11-21T09:16:28;6.80;;;3.80;;
61709;SDS011;73500;51.494;5.386;2023-11-21T09:18:54;6.82;;;3.80;;
61709;SDS011;73500;51.494;5.386;2023-11-21T09:21:19;5.70;;;3.50;;
61709;SDS011;73500;51.494;5.386;2023-11-21T09:23:44;7.63;;;3.57;;
61709;SDS011;73500;51.494;5.386;2023-11-21T09:26:10;6.75;;;3.53;;
61709;SDS011;73500;51.494;5.386;2023-11-21T09:28:35;7.18;;;3.17;;
61709;SDS011;73500;51.494;5.386;2023-11-21T09:31:03;6.57;;;3.20;;
61709;SDS011;73500;51.494;5.386;2023-11-21T09:33:33;7.13;;;3.58;;
61709;SDS011;73500;51.494;5.386;2023-11-21T09:35:59;6.53;;;3.40;;
61709;SDS011;73500;51.494;5.386;2023-11-21T09:38:24;6.45;;;3.47;;
61709;SDS011;73500;51.494;5.386;2023-11-21T09:40:50;6.50;;;3.67;;
61709;SDS011;73500;51.494;5.386;2023-11-21T09:43:16;6.85;;;3.65;;
61709;SDS011;73500;51.494;5.386;2023-11-21T09:45:46;6.03;;;3.00;;
61709;SDS011;73500;51.494;5.386;2023-11-21T09:48:13;5.80;;;3.17;;
61709;SDS011;73500;51.494;5.386;2023-11-21T09:50:41;6.85;;;3.40;;
61709;SDS011;73500;51.494;5.386;2023-11-21T09:53:17;6.53;;;3.40;;
61709;SDS011;73500;51.494;5.386;2023-11-21T09:55:44;5.75;;;3.22;;
61709;SDS011;73500;51.494;5.386;2023-11-21T09:58:12;6.40;;;3.35;;
61709;SDS011;73500;51.494;5.386;2023-11-21T10:00:49;6.30;;;3.65;;
61709;SDS011;73500;51.494;5.386;2023-11-21T10:03:17;7.60;;;3.50;;
61709;SDS011;73500;51.494;5.386;2023-11-21T10:05:43;6.57;;;3.33;;
61709;SDS011;73500;51.494;5.386;2023-11-21T10:08:11;5.18;;;3.30;;
61709;SDS011;73500;51.494;5.386;2023-11-21T10:10:37;6.32;;;3.25;;
61709;SDS011;73500;51.494;5.386;2023-11-21T10:13:10;7.00;;;3.70;;
61709;SDS011;73500;51.494;5.386;2023-11-21T10:15:37;6.50;;;3.53;;
61709;SDS011;73500;51.494;5.386;2023-11-21T10:18:03;6.57;;;3.65;;
61709;SDS011;73500;51.494;5.386;2023-11-21T10:20:31;7.50;;;3.60;;
61709;SDS011;73500;51.494;5.386;2023-11-21T10:22:58;7.90;;;3.58;;
61709;SDS011;73500;51.494;5.386;2023-11-21T10:25:26;7.03;;;3.55;;
61709;SDS011;73500;51.494;5.386;2023-11-21T10:27:56;8.63;;;3.67;;
61709;SDS011;73500;51.494;5.386;2023-11-21T10:30:27;6.67;;;2.97;;
61709;SDS011;73500;51.494;5.386;2023-11-21T10:32:59;8.70;;;3.92;;
61709;SDS011;73500;51.494;5.386;2023-11-21T10:35:25;5.60;;;3.10;;
61709;SDS011;73500;51.494;5.386;2023-11-21T10:38:04;7.88;;;3.40;;
61709;SDS011;73500;51.494;5.386;2023-11-21T10:40:29;6.43;;;3.17;;
61709;SDS011;73500;51.494;5.386;2023-11-21T10:42:54;5.85;;;3.35;;
61709;SDS011;73500;51.494;5.386;2023-11-21T10:45:23;6.57;;;3.50;;
61709;SDS011;73500;51.494;5.386;2023-11-21T10:47:48;6.35;;;3.08;;
61709;SDS011;73500;51.494;5.386;2023-11-21T10:50:16;5.13;;;2.80;;
61709;SDS011;73500;51.494;5.386;2023-11-21T10:52:44;6.65;;;2.85;;
61709;SDS011;73500;51.494;5.386;2023-11-21T10:55:18;6.47;;;3.28;;
61709;SDS011;73500;51.494;5.386;2023-11-21T11:00:13;6.35;;;2.67;;
61709;SDS011;73500;51.494;5.386;2023-11-21T11:02:40;6.10;;;2.80;;
61709;SDS011;73500;51.494;5.386;2023-11-21T11:05:06;5.72;;;2.90;;
61709;SDS011;73500;51.494;5.386;2023-11-21T11:07:36;6.72;;;2.70;;
61709;SDS011;73500;51.494;5.386;2023-11-21T11:10:06;12.63;;;3.47;;
61709;SDS011;73500;51.494;5.386;2023-11-21T11:12:39;5.47;;;2.88;;
61709;SDS011;73500;51.494;5.386;2023-11-21T11:15:04;6.28;;;2.70;;
61709;SDS011;73500;51.494;5.386;2023-11-21T11:17:31;4.60;;;2.47;;
61709;SDS011;73500;51.494;5.386;2023-11-21T11:19:57;6.13;;;2.58;;
61709;SDS011;73500;51.494;5.386;2023-11-21T11:33:39;6.93;;;2.70;;
61709;SDS011;73500;51.494;5.386;2023-11-21T11:38:50;4.65;;;2.55;;
61709;SDS011;73500;51.494;5.386;2023-11-21T11:41:26;5.28;;;2.45;;
61709;SDS011;73500;51.494;5.386;2023-11-21T11:43:52;5.22;;;2.55;;
61709;SDS011;73500;51.494;5.386;2023-11-21T11:46:18;4.20;;;2.13;;
61709;SDS011;73500;51.494;5.386;2023-11-21T11:48:46;5.00;;;2.45;;
61709;SDS011;73500;51.494;5.386;2023-11-21T11:51:13;5.97;;;2.70;;
61709;SDS011;73500;51.494;5.386;2023-11-21T11:53:42;4.80;;;2.47;;
61709;SDS011;73500;51.494;5.386;2023-11-21T11:56:30;5.05;;;2.47;;
61709;SDS011;73500;51.494;5.386;2023-11-21T11:58:59;5.38;;;2.50;;
61709;SDS011;73500;51.494;5.386;2023-11-21T12:01:27;4.00;;;2.28;;
61709;SDS011;73500;51.494;5.386;2023-11-21T12:06:59;4.63;;;2.10;;
61709;SDS011;73500;51.494;5.386;2023-11-21T12:09:27;4.40;;;2.20;;
61709;SDS011;73500;51.494;5.386;2023-11-21T12:11:55;5.63;;;2.40;;
61709;SDS011;73500;51.494;5.386;2023-11-21T12:14:21;4.22;;;2.15;;
61709;SDS011;73500;51.494;5.386;2023-11-21T12:16:47;6.95;;;2.42;;
61709;SDS011;73500;51.494;5.386;2023-11-21T12:19:13;4.45;;;2.10;;
61709;SDS011;73500;51.494;5.386;2023-11-21T12:21:38;5.40;;;2.25;;
61709;SDS011;73500;51.494;5.386;2023-11-21T12:24:06;5.57;;;2.35;;
61709;SDS011;73500;51.494;5.386;2023-11-21T12:26:33;4.55;;;2.15;;
61709;SDS011;73500;51.494;5.386;2023-11-21T12:28:59;5.57;;;2.55;;
61709;SDS011;73500;51.494;5.386;2023-11-21T12:31:25;5.13;;;2.30;;
61709;SDS011;73500;51.494;5.386;2023-11-21T12:33:50;4.55;;;2.13;;
61709;SDS011;73500;51.494;5.386;2023-11-21T12:36:16;4.50;;;2.00;;
61709;SDS011;73500;51.494;5.386;2023-11-21T12:38:42;3.90;;;1.90;;
61709;SDS011;73500;51.494;5.386;2023-11-21T12:41:09;4.80;;;2.10;;
61709;SDS011;73500;51.494;5.386;2023-11-21T12:43:35;4.03;;;1.98;;
61709;SDS011;73500;51.494;5.386;2023-11-21T12:46:04;4.68;;;2.08;;
61709;SDS011;73500;51.494;5.386;2023-11-21T12:48:39;5.03;;;2.05;;
61709;SDS011;73500;51.494;5.386;2023-11-21T12:51:09;4.82;;;2.00;;
61709;SDS011;73500;51.494;5.386;2023-11-21T12:53:35;6.03;;;2.13;;
61709;SDS011;73500;51.494;5.386;2023-11-21T12:56:10;4.35;;;2.30;;
61709;SDS011;73500;51.494;5.386;2023-11-21T12:58:36;4.47;;;2.20;;
61709;SDS011;73500;51.494;5.386;2023-11-21T13:01:04;4.20;;;2.17;;
61709;SDS011;73500;51.494;5.386;2023-11-21T13:03:30;3.67;;;1.90;;
61709;SDS011;73500;51.494;5.386;2023-11-21T13:05:56;6.18;;;2.40;;
61709;SDS011;73500;51.494;5.386;2023-11-21T13:08:23;5.65;;;1.98;;
61709;SDS011;73500;51.494;5.386;2023-11-21T13:10:51;4.85;;;2.00;;
61709;SDS011;73500;51.494;5.386;2023-11-21T13:13:19;5.05;;;2.15;;
61709;SDS011;73500;51.494;5.386;2023-11-21T13:15:57;4.85;;;2.00;;
61709;SDS011;73500;51.494;5.386;2023-11-21T13:18:25;3.72;;;2.03;;
61709;SDS011;73500;51.494;5.386;2023-11-21T13:20:55;4.43;;;2.10;;
61709;SDS011;73500;51.494;5.386;2023-11-21T13:23:22;3.45;;;1.77;;
61709;SDS011;73500;51.494;5.386;2023-11-21T13:25:48;3.45;;;2.40;;
61709;SDS011;73500;51.494;5.386;2023-11-21T13:28:14;5.95;;;2.13;;
61709;SDS011;73500;51.494;5.386;2023-11-21T13:30:40;4.53;;;2.00;;
61709;SDS011;73500;51.494;5.386;2023-11-21T13:33:06;4.85;;;2.42;;
61709;SDS011;73500;51.494;5.386;2023-11-21T13:35:34;5.72;;;2.10;;
61709;SDS011;73500;51.494;5.386;2023-11-21T13:38:05;3.92;;;2.10;;
61709;SDS011;73500;51.494;5.386;2023-11-21T13:40:35;4.60;;;2.28;;
61709;SDS011;73500;51.494;5.386;2023-11-21T13:43:11;4.38;;;2.10;;
61709;SDS011;73500;51.494;5.386;2023-11-21T13:45:38;7.53;;;2.28;;
61709;SDS011;73500;51.494;5.386;2023-11-21T13:48:05;5.65;;;2.20;;
61709;SDS011;73500;51.494;5.386;2023-11-21T13:50:35;5.15;;;2.30;;
61709;SDS011;73500;51.494;5.386;2023-11-21T13:53:01;3.67;;;2.00;;
61709;SDS011;73500;51.494;5.386;2023-11-21T13:55:46;4.47;;;2.20;;
61709;SDS011;73500;51.494;5.386;2023-11-21T13:58:12;3.97;;;1.80;;
61709;SDS011;73500;51.494;5.386;2023-11-21T14:00:43;4.57;;;2.50;;
61709;SDS011;73500;51.494;5.386;2023-11-21T14:03:13;5.15;;;2.10;;
61709;SDS011;73500;51.494;5.386;2023-11-21T14:05:47;6.00;;;2.45;;
61709;SDS011;73500;51.494;5.386;2023-11-21T14:08:18;5.13;;;2.45;;
61709;SDS011;73500;51.494;5.386;2023-11-21T14:10:45;6.13;;;2.47;;
61709;SDS011;73500;51.494;5.386;2023-11-21T14:13:15;5.70;;;2.42;;
61709;SDS011;73500;51.494;5.386;2023-11-21T14:15:41;6.82;;;2.60;;
61709;SDS011;73500;51.494;5.386;2023-11-21T14:18:10;4.68;;;2.38;;
61709;SDS011;73500;51.494;5.386;2023-11-21T14:20:42;4.85;;;2.60;;
61709;SDS011;73500;51.494;5.386;2023-11-21T14:23:09;5.07;;;2.67;;
61709;SDS011;73500;51.494;5.386;2023-11-21T14:25:35;5.10;;;2.45;;
61709;SDS011;73500;51.494;5.386;2023-11-21T14:28:02;4.55;;;2.30;;
61709;SDS011;73500;51.494;5.386;2023-11-21T14:30:28;5.55;;;2.50;;
61709;SDS011;73500;51.494;5.386;2023-11-21T14:32:56;3.97;;;2.03;;
61709;SDS011;73500;51.494;5.386;2023-11-21T14:35:22;4.43;;;2.30;;
61709;SDS011;73500;51.494;5.386;2023-11-21T14:37:48;5.70;;;2.33;;
61709;SDS011;73500;51.494;5.386;2023-11-21T14:40:13;5.00;;;2.50;;
61709;SDS011;73500;51.494;5.386;2023-11-21T14:42:41;4.45;;;2.10;;
61709;SDS011;73500;51.494;5.386;2023-11-21T14:45:07;4.47;;;2.40;;
61709;SDS011;73500;51.494;5.386;2023-11-21T14:47:33;4.63;;;2.40;;
61709;SDS011;73500;51.494;5.386;2023-11-21T14:50:00;7.00;;;2.65;;
61709;SDS011;73500;51.494;5.386;2023-11-21T14:52:48;8.32;;;2.50;;
61709;SDS011;73500;51.494;5.386;2023-11-21T14:55:30;5.50;;;2.30;;
61709;SDS011;73500;51.494;5.386;2023-11-21T15:00:37;5.50;;;2.53;;
61709;SDS011;73500;51.494;5.386;2023-11-21T15:03:09;5.65;;;2.30;;
61709;SDS011;73500;51.494;5.386;2023-11-21T15:05:45;4.82;;;2.22;;
61709;SDS011;73500;51.494;5.386;2023-11-21T15:08:13;4.85;;;2.40;;
61709;SDS011;73500;51.494;5.386;2023-11-21T15:10:45;4.40;;;2.22;;